createdAt,value
2023-05-12T00:04:11.947Z,81.44
2023-05-12T00:09:14.968Z,83.48
2023-05-12T00:14:17.422Z,79.76
2023-05-12T00:19:20.271Z,81.57
2023-05-12T00:24:22.282Z,83.19
2023-05-12T00:29:24.075Z,81.62
2023-05-12T00:34:28.159Z,83.81
2023-05-12T00:39:30.039Z,82.34
2023-05-12T00:44:32.099Z,80.24
2023-05-12T00:49:33.846Z,79.62
2023-05-12T00:54:37.812Z,79.23
2023-05-12T00:59:39.588Z,79.74
2023-05-12T01:04:42.566Z,78.22
2023-05-12T01:09:44.449Z,78.04
2023-05-12T01:14:46.299Z,78.28
2023-05-12T01:19:54.959Z,81.33
2023-05-12T01:25:03.813Z,84.01
2023-05-12T01:30:07.796Z,82.01
2023-05-12T01:35:11.104Z,86.60
2023-05-12T01:40:18.166Z,88.93
2023-05-12T01:45:20.296Z,89.40
2023-05-12T01:50:23.479Z,89.76
2023-05-12T01:55:25.960Z,88.61
2023-05-12T02:00:32.346Z,87.75
2023-05-12T02:05:36.535Z,85.48
2023-05-12T02:10:39.285Z,84.80
2023-05-12T02:15:42.479Z,83.10
2023-05-12T02:20:44.592Z,83.57
2023-05-12T02:25:47.728Z,82.49
2023-05-12T02:30:53.191Z,82.80
2023-05-12T02:35:55.663Z,81.70
2023-05-12T02:40:58.613Z,84.67
2023-05-12T02:46:00.794Z,83.44
2023-05-12T02:51:02.864Z,82.39
2023-05-12T02:56:05.012Z,83.07
2023-05-12T03:01:11.319Z,83.51
2023-05-12T03:06:14.714Z,84.47
2023-05-12T03:11:16.657Z,85.61
2023-05-12T03:16:19.708Z,85.82
2023-05-12T03:21:23.255Z,86.79
2023-05-12T03:26:25.108Z,86.77
2023-05-12T03:31:27.065Z,84.83
2023-05-12T03:36:29.038Z,84.63
2023-05-12T03:41:31.800Z,84.19
2023-05-12T03:46:36.816Z,84.42
2023-05-12T03:51:38.751Z,86.36
2023-05-12T03:56:40.692Z,87.43
2023-05-12T04:01:43.249Z,88.79
2023-05-12T04:06:45.083Z,90.58
2023-05-12T04:11:49.819Z,91.65
2023-05-12T04:16:51.703Z,91.81
2023-05-12T04:21:53.632Z,92.67
2023-05-12T04:26:57.592Z,92.94
2023-05-12T04:32:00.425Z,93.52
2023-05-12T04:37:02.934Z,93.69
2023-05-12T04:42:05.987Z,93.89
2023-05-12T04:47:10.424Z,93.96
2023-05-12T04:52:12.457Z,93.67
2023-05-12T04:57:14.511Z,93.93
2023-05-12T05:02:16.639Z,94.02
2023-05-12T05:07:18.562Z,94.40
2023-05-12T05:12:20.416Z,94.26
2023-05-12T05:17:23.433Z,94.34
2023-05-12T05:22:25.788Z,94.16
2023-05-12T05:27:27.726Z,94.19
2023-05-12T05:32:31.966Z,94.40
2023-05-12T05:37:35.604Z,94.05
2023-05-12T05:42:38.023Z,93.78
2023-05-12T05:47:40.790Z,93.30
2023-05-12T05:52:43.799Z,92.07
2023-05-12T05:57:45.604Z,92.59
2023-05-12T06:02:47.878Z,93.65
2023-05-12T06:07:53.667Z,93.78
2023-05-12T06:12:55.585Z,92.86
2023-05-12T06:17:57.418Z,92.95
2023-05-12T06:22:59.833Z,92.54
2023-05-12T06:28:01.705Z,93.19
2023-05-12T06:33:06.176Z,93.18
2023-05-12T06:38:07.999Z,93.32
2023-05-12T06:43:09.797Z,93.51
2023-05-12T06:48:11.977Z,93.47
2023-05-12T06:53:13.817Z,93.61
2023-05-12T06:58:15.576Z,94.33
2023-05-12T07:03:17.492Z,94.02
2023-05-12T07:08:19.602Z,93.75
2023-05-12T07:13:21.414Z,94.78
2023-05-12T07:18:23.318Z,94.12
2023-05-12T07:23:25.228Z,93.10
2023-05-12T07:28:26.946Z,92.76
2023-05-12T07:33:29.423Z,90.81
2023-05-12T07:38:31.801Z,90.48
2023-05-12T07:43:33.629Z,89.47
2023-05-12T07:48:39.845Z,89.08
2023-05-12T07:53:41.970Z,86.35
2023-05-12T07:58:45.350Z,87.99
2023-05-12T08:03:48.691Z,85.45
2023-05-12T08:08:50.752Z,85.54
2023-05-12T08:13:53.214Z,85.32
2023-05-12T08:18:55.202Z,84.53
2023-05-12T08:23:57.421Z,84.86
2023-05-12T08:28:59.326Z,83.09
2023-05-12T08:34:09.665Z,81.64
2023-05-12T08:39:12.742Z,80.98
2023-05-12T08:44:15.889Z,80.82
2023-05-12T08:49:21.166Z,82.49
2023-05-12T08:54:26.323Z,83.16
2023-05-12T08:59:28.110Z,82.85
2023-05-12T09:04:30.229Z,82.00
2023-05-12T09:09:34.516Z,82.06
2023-05-12T09:14:37.900Z,80.60
2023-05-12T09:19:39.840Z,81.00
2023-05-12T09:24:41.676Z,79.51
2023-05-12T09:29:59.065Z,79.06
2023-05-12T09:35:13.113Z,79.29
2023-05-12T09:40:16.039Z,77.59
2023-05-12T09:45:19.907Z,77.38
2023-05-12T09:50:22.964Z,76.54
2023-05-12T09:55:24.781Z,76.08
2023-05-12T10:00:43.264Z,75.06
2023-05-12T10:05:50.956Z,74.76
2023-05-12T10:10:54.826Z,74.58
2023-05-12T10:15:58.885Z,73.87
2023-05-12T10:21:01.779Z,73.36
2023-05-12T10:26:07.448Z,74.92
2023-05-12T10:31:11.246Z,73.34
2023-05-12T10:36:19.492Z,74.13
2023-05-12T10:41:34.486Z,73.12
2023-05-12T10:46:37.298Z,72.44
2023-05-12T10:51:45.230Z,72.49
2023-05-12T10:56:48.154Z,70.24
2023-05-12T11:02:02.176Z,71.17
2023-05-12T11:07:06.203Z,71.58
2023-05-12T11:12:10.053Z,71.60
2023-05-12T11:17:12.439Z,71.81
2023-05-12T11:22:18.078Z,72.94
2023-05-12T11:27:23.503Z,72.32
2023-05-12T11:32:26.043Z,72.43
2023-05-12T11:37:28.121Z,74.00
2023-05-12T11:42:29.964Z,73.92
2023-05-12T11:47:31.781Z,73.75
2023-05-12T11:52:33.715Z,72.70
2023-05-12T11:57:39.559Z,71.77
2023-05-12T12:02:43.445Z,72.36
2023-05-12T12:07:46.510Z,72.20
2023-05-12T12:12:48.400Z,73.77
2023-05-12T12:17:56.746Z,73.36
2023-05-12T12:22:58.647Z,74.51
2023-05-12T12:28:02.696Z,72.76
2023-05-12T12:33:06.907Z,72.00
2023-05-12T12:38:08.850Z,73.24
2023-05-12T12:43:10.680Z,74.22
2023-05-12T12:48:12.482Z,76.54
2023-05-12T12:53:14.418Z,77.35
2023-05-12T12:58:16.347Z,77.47
2023-05-12T13:03:20.204Z,78.14
2023-05-12T13:08:25.014Z,81.48
2023-05-12T13:13:32.621Z,82.55
2023-05-12T13:18:34.453Z,83.57
2023-05-12T13:23:43.485Z,84.42
2023-05-12T13:28:45.478Z,85.94
2023-05-12T13:33:50.099Z,86.50
2023-05-12T13:38:52.468Z,86.73
2023-05-12T13:43:54.319Z,85.97
2023-05-12T13:49:06.396Z,86.39
2023-05-12T13:54:08.412Z,86.05
2023-05-12T13:59:10.507Z,87.68
2023-05-12T14:04:16.516Z,88.38
2023-05-12T14:09:20.697Z,88.28
2023-05-12T14:14:22.462Z,88.61
2023-05-12T14:19:25.369Z,87.39
2023-05-12T14:24:30.447Z,85.32
2023-05-12T14:29:32.320Z,86.02
2023-05-12T14:34:34.136Z,84.22
2023-05-12T14:39:35.958Z,85.17
2023-05-12T14:44:37.726Z,83.41
2023-05-12T14:49:39.643Z,82.41
2023-05-12T14:54:44.700Z,81.65
2023-05-12T14:59:49.183Z,81.48
2023-05-12T15:04:51.023Z,83.36
2023-05-12T15:09:53.048Z,85.68
2023-05-12T15:14:56.552Z,85.77
2023-05-12T15:19:58.741Z,87.61
2023-05-12T15:25:01.492Z,89.95
2023-05-12T15:30:03.985Z,91.35
2023-05-12T15:35:08.572Z,92.68
2023-05-12T15:40:10.845Z,93.07
2023-05-12T15:45:12.697Z,93.57
2023-05-12T15:50:19.813Z,94.20
2023-05-12T15:55:22.188Z,93.61
2023-05-12T16:00:25.115Z,93.86
2023-05-12T16:05:27.026Z,93.71
2023-05-12T16:10:28.832Z,94.07
2023-05-12T16:15:30.649Z,94.22
2023-05-12T16:20:32.608Z,94.10
2023-05-12T16:25:34.990Z,94.18
2023-05-12T16:30:38.337Z,94.36
2023-05-12T16:35:41.063Z,94.78
2023-05-12T16:40:42.863Z,94.78
2023-05-12T16:45:45.283Z,94.28
2023-05-12T16:50:48.335Z,94.74
2023-05-12T16:55:53.077Z,94.85
2023-05-12T17:00:54.905Z,94.62
2023-05-12T17:05:57.565Z,94.64
2023-05-12T17:10:59.377Z,94.78
2023-05-12T17:16:02.570Z,94.78
2023-05-12T17:21:07.175Z,94.62
2023-05-12T17:26:08.931Z,94.78
2023-05-12T17:31:13.285Z,94.95
2023-05-12T17:36:15.148Z,95.01
2023-05-12T17:41:17.058Z,94.86
2023-05-12T17:46:18.903Z,95.10
2023-05-12T17:51:21.886Z,94.76
2023-05-12T17:56:23.708Z,94.92
2023-05-12T18:01:25.556Z,95.18
2023-05-12T18:06:27.493Z,95.29
2023-05-12T18:11:29.492Z,95.43
2023-05-12T18:16:33.957Z,95.73
2023-05-12T18:21:36.386Z,95.76
2023-05-12T18:26:38.306Z,96.06
2023-05-12T18:31:41.239Z,96.12
2023-05-12T18:36:43.151Z,96.17
2023-05-12T18:41:45.042Z,96.17
2023-05-12T18:46:47.188Z,96.17
2023-05-12T18:51:49.044Z,95.38
2023-05-12T18:56:51.687Z,95.06
2023-05-12T19:01:53.476Z,94.89
2023-05-12T19:06:55.875Z,95.07
2023-05-12T19:11:57.728Z,94.64
2023-05-12T19:17:00.964Z,94.14
2023-05-12T19:22:05.560Z,94.25
2023-05-12T19:27:07.589Z,94.26
2023-05-12T19:32:10.213Z,94.67
2023-05-12T19:37:12.113Z,94.47
2023-05-12T19:42:16.527Z,94.28
2023-05-12T19:47:19.424Z,93.73
2023-05-12T19:52:24.554Z,93.89
2023-05-12T19:57:26.690Z,93.66
2023-05-12T20:02:30.951Z,93.40
2023-05-12T20:07:33.868Z,93.72
2023-05-12T20:12:35.850Z,93.40
2023-05-12T20:17:38.081Z,93.23
2023-05-12T20:22:39.983Z,93.34
2023-05-12T20:27:45.239Z,93.41
2023-05-12T20:32:48.812Z,93.19
2023-05-12T20:37:51.033Z,93.58
2023-05-12T20:42:52.858Z,93.53
2023-05-12T20:47:54.739Z,93.22
2023-05-12T20:52:56.901Z,93.78
2023-05-12T20:57:58.712Z,93.51
2023-05-12T21:03:02.977Z,93.54
2023-05-12T21:08:05.018Z,93.22
2023-05-12T21:13:06.994Z,93.15
2023-05-12T21:18:09.098Z,93.53
2023-05-12T21:23:12.455Z,93.83
2023-05-12T21:28:14.535Z,93.82
2023-05-12T21:33:16.257Z,94.14
2023-05-12T21:38:18.055Z,93.99
2023-05-12T21:43:20.146Z,93.52
2023-05-12T21:48:22.272Z,93.69
2023-05-12T21:53:24.050Z,93.80
2023-05-12T21:58:26.227Z,93.71
2023-05-12T22:03:29.995Z,94.14
2023-05-12T22:08:31.777Z,93.70
2023-05-12T22:13:36.675Z,93.86
2023-05-12T22:18:38.517Z,93.43
2023-05-12T22:23:42.209Z,93.42
2023-05-12T22:28:46.702Z,93.24
2023-05-12T22:33:48.488Z,93.02
2023-05-12T22:38:50.454Z,93.04
2023-05-12T22:43:52.276Z,93.17
2023-05-12T22:48:54.034Z,93.02
2023-05-12T22:53:55.821Z,93.30
2023-05-12T22:58:59.052Z,93.13
2023-05-12T23:04:01.006Z,93.10
2023-05-12T23:09:02.899Z,92.62
2023-05-12T23:14:04.682Z,92.96
2023-05-12T23:19:06.648Z,92.99
2023-05-12T23:24:09.060Z,93.13
2023-05-12T23:29:10.902Z,92.67
2023-05-12T23:34:12.801Z,92.21
2023-05-12T23:39:14.527Z,92.47
2023-05-12T23:44:16.345Z,92.35
2023-05-12T23:49:18.352Z,92.46
2023-05-12T23:54:21.262Z,91.77
2023-05-12T23:59:23.050Z,92.17
